Time;durP1;ratioP1;P1;durP2;ratioP2;P2;SDS_P1;SDS_P2;PMS_P1;PMS_P2;Temp;Humidity;BMP_temperature;BMP_pressure;BME280_temperature;BME280_humidity;BME280_pressure;Samples;Min_cycle;Max_cycle;Signal;HPM_P1;HPM_P2
2023/05/18 00:00:52;;;;;;;4.13;1.40;;;9.10;99.90;;;;;;4169121;28;20207;-76
2023/05/18 00:02:56;;;;;;;7.43;1.80;;;9.00;99.90;;;;;;4175339;28;20211;-76
2023/05/18 00:05:01;;;;;;;3.77;1.90;;;9.00;99.90;;;;;;4168267;28;20242;-76
2023/05/18 00:07:04;;;;;;;5.37;1.60;;;9.00;99.90;;;;;;4166621;28;20257;-76
2023/05/18 00:09:06;;;;;;;5.90;2.10;;;8.90;99.90;;;;;;4175139;28;20309;-76
2023/05/18 00:11:08;;;;;;;6.20;1.63;;;8.90;99.90;;;;;;4172446;28;20562;-76
2023/05/18 00:13:10;;;;;;;5.77;1.63;;;8.80;99.90;;;;;;4167165;28;21157;-76
2023/05/18 00:15:12;;;;;;;7.97;1.87;;;8.80;99.90;;;;;;4176650;28;20207;-76
2023/05/18 00:17:14;;;;;;;4.77;1.60;;;8.80;99.90;;;;;;4169528;28;20240;-76
2023/05/18 00:19:19;;;;;;;3.20;1.50;;;8.80;99.90;;;;;;4170896;28;20218;-76
2023/05/18 00:21:21;;;;;;;4.00;1.60;;;8.70;99.90;;;;;;4180178;28;20207;-76
2023/05/18 00:23:23;;;;;;;4.17;1.60;;;8.70;99.90;;;;;;4176277;28;20936;-76
2023/05/18 00:25:25;;;;;;;5.17;1.30;;;8.70;99.90;;;;;;4174956;28;20232;-76
2023/05/18 00:27:27;;;;;;;3.27;1.33;;;8.60;99.90;;;;;;4168900;28;20273;-76
2023/05/18 00:29:29;;;;;;;5.00;1.40;;;8.60;99.90;;;;;;4169182;28;20210;-76
2023/05/18 00:31:34;;;;;;;7.57;1.90;;;8.60;99.90;;;;;;4166040;28;20203;-76
2023/05/18 00:33:36;;;;;;;3.43;1.50;;;8.50;99.90;;;;;;4175465;28;20217;-76
2023/05/18 00:35:40;;;;;;;5.17;1.60;;;8.50;99.90;;;;;;4170807;28;20306;-76
2023/05/18 00:37:42;;;;;;;3.50;1.77;;;8.40;99.90;;;;;;4175273;28;21149;-76
2023/05/18 00:39:43;;;;;;;3.07;1.33;;;8.40;99.90;;;;;;4169855;28;20926;-76
2023/05/18 00:41:45;;;;;;;5.03;1.60;;;8.40;99.90;;;;;;4166559;28;20217;-76
2023/05/18 00:43:47;;;;;;;2.77;1.37;;;8.40;99.90;;;;;;4171357;28;20532;-76
2023/05/18 00:45:49;;;;;;;4.73;1.73;;;8.30;99.90;;;;;;4177493;28;20489;-76
2023/05/18 00:47:51;;;;;;;5.33;1.57;;;8.20;99.90;;;;;;4171964;28;20507;-76
2023/05/18 00:49:53;;;;;;;6.93;1.87;;;8.20;99.90;;;;;;4176587;28;20830;-76
2023/05/18 00:51:57;;;;;;;4.67;1.63;;;8.20;99.90;;;;;;4178639;28;20215;-76
2023/05/18 00:54:01;;;;;;;4.70;1.50;;;8.20;99.90;;;;;;4166369;28;20456;-76
2023/05/18 00:56:03;;;;;;;6.17;1.80;;;8.10;99.90;;;;;;4169846;28;20468;-76
2023/05/18 00:58:05;;;;;;;4.73;1.70;;;8.10;99.90;;;;;;4168854;28;20483;-76
2023/05/18 01:00:09;;;;;;;6.27;1.80;;;8.10;99.90;;;;;;4173163;28;20460;-76
2023/05/18 01:02:13;;;;;;;5.83;1.60;;;7.90;99.90;;;;;;4174312;28;20469;-76
2023/05/18 01:04:15;;;;;;;5.67;1.80;;;8.00;99.90;;;;;;4172932;28;20481;-76
2023/05/18 01:06:17;;;;;;;5.63;1.70;;;7.90;99.90;;;;;;4171298;28;20540;-75
2023/05/18 01:08:20;;;;;;;2.83;1.43;;;7.90;99.90;;;;;;4167070;28;20504;-76
2023/05/18 01:10:22;;;;;;;3.67;1.77;;;7.80;99.90;;;;;;4170993;28;20495;-76
2023/05/18 01:12:29;;;;;;;5.30;1.67;;;7.80;99.90;;;;;;4171269;28;20552;-76
2023/05/18 01:14:36;;;;;;;5.80;1.80;;;7.80;99.90;;;;;;4166198;28;20469;-76
2023/05/18 01:16:48;;;;;;;3.00;1.53;;;7.70;99.90;;;;;;4166832;28;20519;-76
2023/05/18 01:19:01;;;;;;;4.10;1.70;;;7.70;99.90;;;;;;4169196;28;20480;-76
2023/05/18 01:21:18;;;;;;;6.97;1.63;;;7.70;99.90;;;;;;4170609;28;20576;-76
2023/05/18 01:23:46;;;;;;;3.90;1.47;;;7.60;99.90;;;;;;4171297;28;20514;-76
2023/05/18 01:25:56;;;;;;;7.40;1.93;;;7.60;99.90;;;;;;4167373;28;20493;-76
2023/05/18 01:28:04;;;;;;;8.17;1.80;;;7.50;99.90;;;;;;4167438;28;20488;-77
2023/05/18 01:30:08;;;;;;;4.37;1.70;;;7.50;99.90;;;;;;4168384;28;20455;-77
2023/05/18 01:32:10;;;;;;;7.07;1.80;;;7.50;99.90;;;;;;4168577;28;20457;-77
2023/05/18 01:34:12;;;;;;;5.63;1.70;;;7.40;99.90;;;;;;4166097;28;20470;-77
2023/05/18 01:36:13;;;;;;;6.10;1.70;;;7.40;99.90;;;;;;4166752;28;20472;-77
2023/05/18 01:38:17;;;;;;;5.77;1.70;;;7.40;99.90;;;;;;4169192;28;20584;-77
2023/05/18 01:40:19;;;;;;;3.07;1.50;;;7.40;99.90;;;;;;4170718;28;20551;-77
2023/05/18 01:42:26;;;;;;;9.97;2.20;;;7.30;99.90;;;;;;4169229;28;20467;-77
2023/05/18 01:44:34;;;;;;;6.60;2.07;;;7.30;99.90;;;;;;4168599;28;20492;-77
2023/05/18 01:46:46;;;;;;;5.70;1.80;;;7.20;99.90;;;;;;4168701;28;20824;-77
2023/05/18 01:48:55;;;;;;;5.80;1.87;;;7.20;99.90;;;;;;4169073;28;20488;-77
2023/05/18 01:50:59;;;;;;;6.40;1.93;;;7.20;99.90;;;;;;4164529;28;20480;-77
2023/05/18 01:53:06;;;;;;;3.83;1.90;;;7.10;99.90;;;;;;4168513;28;20466;-77
2023/05/18 01:55:10;;;;;;;4.87;1.73;;;7.10;99.90;;;;;;4167913;28;20467;-77
2023/05/18 01:57:16;;;;;;;4.53;1.83;;;7.10;99.90;;;;;;4166681;28;20493;-77
2023/05/18 01:59:18;;;;;;;6.17;1.70;;;7.00;99.90;;;;;;4167289;28;20473;-77
2023/05/18 02:01:22;;;;;;;5.07;1.80;;;7.00;99.90;;;;;;4167975;28;20566;-77
2023/05/18 02:03:24;;;;;;;4.93;2.00;;;7.00;99.90;;;;;;4162144;28;20496;-77
2023/05/18 02:05:26;;;;;;;7.70;1.90;;;6.90;99.90;;;;;;4169869;28;20484;-77
2023/05/18 02:07:28;;;;;;;5.40;1.80;;;6.90;99.90;;;;;;4168912;28;20584;-77
2023/05/18 02:09:30;;;;;;;4.00;1.80;;;6.90;99.90;;;;;;4170696;28;20947;-77
2023/05/18 02:11:32;;;;;;;7.03;2.07;;;6.90;99.90;;;;;;4169320;28;20503;-77
2023/05/18 02:13:34;;;;;;;8.67;2.00;;;6.80;99.90;;;;;;4171740;28;20459;-75
2023/05/18 02:15:36;;;;;;;6.53;2.17;;;6.80;99.90;;;;;;4168411;28;20481;-77
2023/05/18 02:17:39;;;;;;;9.40;2.20;;;6.80;99.90;;;;;;4169419;28;20524;-77
2023/05/18 02:19:41;;;;;;;3.57;1.70;;;6.70;99.90;;;;;;4169474;28;20562;-77
2023/05/18 02:21:43;;;;;;;4.83;2.03;;;6.70;99.90;;;;;;4168533;28;20456;-77
2023/05/18 02:23:45;;;;;;;9.00;2.17;;;6.70;99.90;;;;;;4169453;28;20521;-77
2023/05/18 02:25:47;;;;;;;3.87;1.70;;;6.70;99.90;;;;;;4172876;28;20476;-77
2023/05/18 02:27:49;;;;;;;3.97;1.90;;;6.60;99.90;;;;;;4170276;28;20489;-77
2023/05/18 02:29:51;;;;;;;6.43;2.30;;;6.60;99.90;;;;;;4171937;28;20940;-77
2023/05/18 02:31:53;;;;;;;6.57;2.00;;;6.60;99.90;;;;;;4168513;28;21240;-77
2023/05/18 02:33:56;;;;;;;6.33;1.90;;;6.60;99.90;;;;;;4169896;28;20453;-75
2023/05/18 02:35:58;;;;;;;4.23;2.00;;;6.50;99.90;;;;;;4171932;28;20462;-74
2023/05/18 02:38:01;;;;;;;4.07;2.07;;;6.50;99.90;;;;;;4170816;28;20480;-77
2023/05/18 02:40:04;;;;;;;3.10;1.50;;;6.40;99.90;;;;;;4169282;28;20455;-77
2023/05/18 02:42:07;;;;;;;5.33;1.77;;;6.40;99.90;;;;;;4171598;28;20446;-77
2023/05/18 02:44:11;;;;;;;4.53;1.83;;;6.40;99.90;;;;;;4170930;28;20794;-77
2023/05/18 02:46:13;;;;;;;6.50;2.10;;;6.40;99.90;;;;;;4170215;28;20970;-77
2023/05/18 02:48:14;;;;;;;3.57;2.00;;;6.40;99.90;;;;;;4172603;28;20538;-77
2023/05/18 02:50:18;;;;;;;8.43;1.87;;;6.30;99.90;;;;;;4167896;28;20477;-77
2023/05/18 02:52:20;;;;;;;4.30;2.20;;;6.30;99.90;;;;;;4171606;28;20451;-77
2023/05/18 02:54:25;;;;;;;5.87;2.67;;;6.30;99.90;;;;;;4172529;28;21434;-77
2023/05/18 02:56:27;;;;;;;6.57;2.17;;;6.30;99.90;;;;;;4168620;28;20449;-77
2023/05/18 02:58:29;;;;;;;4.07;1.93;;;6.20;99.90;;;;;;4170349;28;20468;-77
2023/05/18 03:00:31;;;;;;;5.93;1.80;;;6.20;99.90;;;;;;4172633;28;21042;-77
2023/05/18 03:02:37;;;;;;;5.13;2.27;;;6.20;99.90;;;;;;4168797;28;20463;-77
2023/05/18 03:04:40;;;;;;;5.50;1.97;;;6.20;99.90;;;;;;4170049;28;21179;-77
2023/05/18 03:06:45;;;;;;;3.23;2.00;;;6.20;99.90;;;;;;4164766;28;20452;-77
2023/05/18 03:08:47;;;;;;;6.03;2.00;;;6.20;99.90;;;;;;4168736;28;20835;-77
2023/05/18 03:10:50;;;;;;;4.50;2.20;;;6.20;99.90;;;;;;4174452;28;20519;-77
2023/05/18 03:12:52;;;;;;;5.80;2.23;;;6.10;99.90;;;;;;4171298;28;20510;-77
2023/05/18 03:14:54;;;;;;;5.10;2.20;;;6.10;99.90;;;;;;4169951;28;20517;-77
2023/05/18 03:16:56;;;;;;;7.03;2.53;;;6.10;99.90;;;;;;4170393;28;21131;-77
2023/05/18 03:19:00;;;;;;;4.53;2.17;;;6.10;99.90;;;;;;4169978;28;20452;-76
2023/05/18 03:21:02;;;;;;;4.00;1.67;;;6.10;99.90;;;;;;4170590;28;20501;-77
2023/05/18 03:23:05;;;;;;;3.67;1.87;;;6.10;99.90;;;;;;4169184;28;20476;-77
2023/05/18 03:25:10;;;;;;;3.53;1.90;;;6.10;99.90;;;;;;4171179;28;20894;-76
2023/05/18 03:27:15;;;;;;;5.73;2.03;;;6.00;99.90;;;;;;4170349;28;20484;-77
2023/05/18 03:29:19;;;;;;;6.03;2.20;;;6.00;99.90;;;;;;4172327;28;20542;-76
2023/05/18 03:31:24;;;;;;;6.13;2.50;;;6.10;99.90;;;;;;4174550;28;20967;-76
2023/05/18 03:33:27;;;;;;;5.00;1.80;;;5.90;99.90;;;;;;4173851;28;20536;-76
2023/05/18 03:35:29;;;;;;;4.30;2.20;;;6.00;99.90;;;;;;4169142;28;21046;-76
2023/05/18 03:37:31;;;;;;;6.20;2.13;;;5.90;99.90;;;;;;4177167;28;20466;-76
2023/05/18 03:39:34;;;;;;;5.90;2.33;;;6.00;99.90;;;;;;4177254;28;20846;-76
2023/05/18 03:41:36;;;;;;;6.80;2.53;;;5.90;99.90;;;;;;4172299;28;20865;-76
2023/05/18 03:43:38;;;;;;;5.67;2.10;;;5.90;99.90;;;;;;4169310;28;20472;-76
2023/05/18 03:45:40;;;;;;;6.07;2.20;;;5.90;99.90;;;;;;4174713;28;20831;-76
2023/05/18 03:47:42;;;;;;;9.27;2.53;;;5.90;99.90;;;;;;4177635;28;20472;-76
2023/05/18 03:49:44;;;;;;;4.13;2.33;;;5.90;99.90;;;;;;4175333;28;20537;-76
2023/05/18 03:51:46;;;;;;;6.10;2.13;;;5.90;99.90;;;;;;4175288;28;20580;-76
2023/05/18 03:53:48;;;;;;;6.63;2.30;;;5.90;99.90;;;;;;4169320;28;20452;-77
2023/05/18 03:55:51;;;;;;;5.60;2.20;;;5.90;99.90;;;;;;4170824;28;20510;-77
2023/05/18 03:57:53;;;;;;;6.80;2.10;;;5.90;99.90;;;;;;4169499;28;20953;-75
2023/05/18 03:59:56;;;;;;;7.13;2.23;;;5.90;99.90;;;;;;4167327;28;20485;-77
2023/05/18 04:01:59;;;;;;;6.33;2.20;;;5.90;99.90;;;;;;4172554;28;20456;-76
2023/05/18 04:04:01;;;;;;;5.80;2.13;;;5.90;99.90;;;;;;4172300;28;20563;-76
2023/05/18 04:06:03;;;;;;;6.80;2.30;;;5.90;99.90;;;;;;4169241;28;20536;-78
2023/05/18 04:08:06;;;;;;;3.63;2.00;;;5.90;99.90;;;;;;4171498;28;20487;-78
2023/05/18 04:10:08;;;;;;;5.57;1.90;;;5.90;99.90;;;;;;4168267;28;20447;-77
2023/05/18 04:12:12;;;;;;;8.00;2.60;;;5.90;99.90;;;;;;4168078;28;20523;-78
2023/05/18 04:14:15;;;;;;;4.73;1.90;;;6.00;99.90;;;;;;4169145;28;20521;-77
2023/05/18 04:16:18;;;;;;;3.60;2.00;;;5.90;99.90;;;;;;4167914;28;20943;-76
2023/05/18 04:18:23;;;;;;;6.17;2.20;;;5.90;99.90;;;;;;4167765;28;20897;-77
2023/05/18 04:20:28;;;;;;;4.17;1.83;;;6.00;99.90;;;;;;4168856;28;20466;-77
2023/05/18 04:22:31;;;;;;;5.00;2.00;;;6.00;99.90;;;;;;4168442;28;20448;-77
2023/05/18 04:24:33;;;;;;;4.47;1.87;;;5.90;99.90;;;;;;4166130;28;20440;-77
2023/05/18 04:26:37;;;;;;;5.17;2.07;;;5.90;99.90;;;;;;4173536;28;20494;-76
2023/05/18 04:28:47;;;;;;;4.73;2.10;;;5.90;99.90;;;;;;4173039;28;20543;-77
2023/05/18 04:30:50;;;;;;;10.47;2.80;;;6.00;99.90;;;;;;4177272;28;20456;-76
2023/05/18 04:32:53;;;;;;;9.60;2.77;;;6.00;99.90;;;;;;4171001;28;20983;-77
2023/05/18 04:34:57;;;;;;;6.27;2.13;;;6.00;99.90;;;;;;4169228;28;20453;-77
2023/05/18 04:36:59;;;;;;;5.43;1.87;;;5.90;99.90;;;;;;4173217;28;20528;-77
2023/05/18 04:39:06;;;;;;;5.03;1.93;;;6.00;99.90;;;;;;4168296;28;20455;-77
2023/05/18 04:41:08;;;;;;;6.33;2.20;;;6.00;99.90;;;;;;4169041;28;20452;-76
2023/05/18 04:43:10;;;;;;;5.33;1.67;;;6.00;99.90;;;;;;4169526;28;20513;-77
2023/05/18 04:45:15;;;;;;;5.33;2.30;;;6.00;99.90;;;;;;4170734;28;20450;-77
2023/05/18 04:47:17;;;;;;;5.00;2.40;;;6.00;99.90;;;;;;4168412;28;20461;-77
2023/05/18 04:49:20;;;;;;;7.50;2.37;;;6.00;99.90;;;;;;4166077;28;20458;-77
2023/05/18 04:51:22;;;;;;;5.73;2.23;;;6.00;99.90;;;;;;4170259;28;20495;-76
2023/05/18 04:53:26;;;;;;;6.60;2.00;;;6.10;99.90;;;;;;4170018;28;20460;-77
2023/05/18 04:55:29;;;;;;;4.03;2.13;;;6.00;99.90;;;;;;4168715;28;20535;-76
2023/05/18 04:57:31;;;;;;;5.80;2.23;;;6.10;99.90;;;;;;4167455;28;20456;-77
2023/05/18 04:59:35;;;;;;;4.03;2.00;;;6.10;99.90;;;;;;4169139;28;20468;-76
2023/05/18 05:01:39;;;;;;;4.77;2.20;;;6.10;99.90;;;;;;4170744;28;20454;-76
2023/05/18 05:03:41;;;;;;;5.83;2.20;;;6.10;99.90;;;;;;4171643;28;20449;-77
2023/05/18 05:05:43;;;;;;;3.43;1.77;;;6.10;99.90;;;;;;4172391;28;20497;-76
2023/05/18 05:07:45;;;;;;;4.87;2.30;;;6.20;99.90;;;;;;4173152;28;20466;-77
2023/05/18 05:09:47;;;;;;;5.80;2.03;;;6.10;99.90;;;;;;4167133;28;20960;-76
2023/05/18 05:11:49;;;;;;;3.23;1.70;;;6.20;99.90;;;;;;4169230;28;20449;-77
2023/05/18 05:13:51;;;;;;;6.10;2.20;;;6.30;99.90;;;;;;4169453;28;20463;-76
2023/05/18 05:15:53;;;;;;;4.50;1.87;;;6.30;99.90;;;;;;4170440;28;20987;-76
2023/05/18 05:18:00;;;;;;;6.20;2.23;;;6.40;99.90;;;;;;4168043;28;20557;-75
2023/05/18 05:20:02;;;;;;;4.50;2.00;;;6.60;99.90;;;;;;4165063;28;20468;-75
2023/05/18 05:22:04;;;;;;;3.37;1.80;;;6.50;99.90;;;;;;4164771;28;21076;-76
2023/05/18 05:24:07;;;;;;;2.63;2.00;;;6.50;99.90;;;;;;4166902;28;20951;-76
2023/05/18 05:26:11;;;;;;;4.80;1.90;;;6.60;99.90;;;;;;4170183;28;20838;-76
2023/05/18 05:28:13;;;;;;;5.23;1.87;;;6.60;99.90;;;;;;4169281;28;21145;-76
2023/05/18 05:30:15;;;;;;;2.87;1.70;;;6.70;99.90;;;;;;4169433;28;20447;-76
2023/05/18 05:32:17;;;;;;;7.03;2.13;;;6.70;99.90;;;;;;4168435;28;20451;-76
2023/05/18 05:34:20;;;;;;;4.10;1.57;;;6.70;99.90;;;;;;4170317;28;20934;-76
2023/05/18 05:36:22;;;;;;;4.53;1.90;;;6.80;99.90;;;;;;4165378;28;20437;-76
2023/05/18 05:38:24;;;;;;;6.57;2.20;;;6.80;99.90;;;;;;4170310;28;21036;-76
2023/05/18 05:40:26;;;;;;;5.23;2.00;;;6.80;99.90;;;;;;4201226;28;20454;-75
2023/05/18 05:42:28;;;;;;;7.17;2.33;;;6.80;99.90;;;;;;4170050;28;20476;-75
2023/05/18 05:44:30;;;;;;;5.00;1.80;;;6.80;99.90;;;;;;4171602;28;20442;-75
2023/05/18 05:46:32;;;;;;;4.40;1.63;;;6.90;99.90;;;;;;4168024;28;20860;-78
2023/05/18 05:48:34;;;;;;;5.87;1.63;;;6.90;99.90;;;;;;4168608;28;20507;-78
2023/05/18 05:50:38;;;;;;;3.13;1.70;;;6.90;99.90;;;;;;4176214;28;21688;-78
2023/05/18 05:52:40;;;;;;;4.83;1.90;;;7.00;99.90;;;;;;4175191;28;20475;-78
2023/05/18 05:54:42;;;;;;;4.13;1.67;;;7.00;99.90;;;;;;4179882;28;20457;-78
2023/05/18 05:56:44;;;;;;;3.23;1.83;;;7.00;99.90;;;;;;4174293;28;20441;-77
2023/05/18 05:58:46;;;;;;;3.10;1.60;;;7.10;99.90;;;;;;4176837;28;20974;-78
2023/05/18 06:00:48;;;;;;;4.57;1.60;;;7.10;99.90;;;;;;4175106;28;20444;-78
2023/05/18 06:02:50;;;;;;;4.53;1.70;;;7.20;99.90;;;;;;4175464;28;20541;-79
2023/05/18 06:04:52;;;;;;;5.57;1.60;;;7.20;99.90;;;;;;4173384;28;20534;-77
2023/05/18 06:06:55;;;;;;;3.27;1.40;;;7.20;99.90;;;;;;4180330;28;20498;-78
2023/05/18 06:08:57;;;;;;;1.77;1.43;;;7.30;99.90;;;;;;4179601;28;20462;-77
2023/05/18 06:10:59;;;;;;;3.30;1.27;;;7.30;99.90;;;;;;4182688;28;20449;-79
2023/05/18 06:13:01;;;;;;;4.90;1.60;;;7.50;99.90;;;;;;4178809;28;20504;-77
2023/05/18 06:15:03;;;;;;;5.63;1.70;;;7.40;99.90;;;;;;4175722;28;20449;-76
2023/05/18 06:17:05;;;;;;;3.87;1.70;;;7.50;99.90;;;;;;4183059;28;20449;-78
2023/05/18 06:19:08;;;;;;;3.70;1.60;;;7.50;99.90;;;;;;4187035;28;20458;-78
2023/05/18 06:21:09;;;;;;;6.00;1.70;;;7.60;99.90;;;;;;4189960;28;21153;-76
2023/05/18 06:23:13;;;;;;;6.40;1.97;;;7.60;99.90;;;;;;4188922;28;20445;-76
2023/05/18 06:25:16;;;;;;;3.90;1.23;;;7.70;99.90;;;;;;4182939;28;20539;-77
2023/05/18 06:27:18;;;;;;;5.03;1.60;;;7.70;99.90;;;;;;4179109;28;20884;-77
2023/05/18 06:29:21;;;;;;;5.33;1.30;;;7.80;99.90;;;;;;4176042;28;20460;-76
2023/05/18 06:31:23;;;;;;;3.73;1.40;;;7.80;99.90;;;;;;4175247;28;20452;-77
2023/05/18 06:33:25;;;;;;;6.63;1.50;;;7.80;99.90;;;;;;4180736;28;20452;-78
2023/05/18 06:35:27;;;;;;;5.17;1.47;;;7.90;99.90;;;;;;4180557;28;20447;-77
2023/05/18 06:37:30;;;;;;;6.57;1.60;;;8.00;99.90;;;;;;4180069;28;20460;-78
2023/05/18 06:39:33;;;;;;;9.00;1.83;;;8.00;99.90;;;;;;4182006;28;20487;-78
2023/05/18 06:41:35;;;;;;;4.80;1.37;;;8.10;99.90;;;;;;4173054;28;20225;-78
2023/05/18 06:43:37;;;;;;;3.60;1.30;;;8.20;99.90;;;;;;4175419;28;20873;-77
2023/05/18 06:45:39;;;;;;;5.83;1.30;;;8.20;99.90;;;;;;4176578;28;20288;-77
2023/05/18 06:47:41;;;;;;;5.77;1.57;;;8.30;99.90;;;;;;4178589;28;20990;-78
2023/05/18 06:49:43;;;;;;;3.17;1.20;;;8.30;99.90;;;;;;4168266;28;20211;-77
2023/05/18 06:51:45;;;;;;;4.73;1.20;;;8.40;99.90;;;;;;4173991;28;20218;-77
2023/05/18 06:53:47;;;;;;;3.00;1.20;;;8.40;99.90;;;;;;4177458;28;20203;-77
2023/05/18 06:55:50;;;;;;;5.20;1.30;;;8.50;99.90;;;;;;4181444;28;20206;-77
2023/05/18 06:57:55;;;;;;;4.23;1.40;;;8.60;99.90;;;;;;4172460;28;20222;-78
2023/05/18 06:59:57;;;;;;;4.77;1.50;;;8.60;99.90;;;;;;4173014;28;20206;-78
2023/05/18 07:02:03;;;;;;;12.93;2.13;;;8.60;99.90;;;;;;4168168;28;20215;-77
2023/05/18 07:04:06;;;;;;;5.63;1.67;;;8.70;99.90;;;;;;4169347;28;20294;-77
2023/05/18 07:06:08;;;;;;;7.53;1.47;;;8.80;99.90;;;;;;4168944;28;20287;-76
2023/05/18 07:08:10;;;;;;;4.13;1.57;;;8.90;99.90;;;;;;4176390;28;20222;-77
2023/05/18 07:10:12;;;;;;;2.97;1.30;;;8.90;99.90;;;;;;4168175;28;20286;-76
2023/05/18 07:12:15;;;;;;;7.00;1.40;;;8.90;99.90;;;;;;4170115;28;20727;-75
2023/05/18 07:14:17;;;;;;;3.47;1.20;;;9.00;99.90;;;;;;4173196;28;20260;-76
2023/05/18 07:16:19;;;;;;;4.27;1.33;;;9.10;99.90;;;;;;4170629;28;20252;-76
2023/05/18 07:18:21;;;;;;;8.13;1.70;;;9.10;99.90;;;;;;4165663;28;20288;-77
2023/05/18 07:20:23;;;;;;;7.33;1.70;;;9.20;99.90;;;;;;4173348;28;20208;-78
2023/05/18 07:22:25;;;;;;;5.10;1.67;;;9.30;99.90;;;;;;4166967;28;20219;-79
2023/05/18 07:24:27;;;;;;;5.83;1.60;;;9.30;99.90;;;;;;4169581;28;20287;-78
2023/05/18 07:26:29;;;;;;;5.63;1.33;;;9.40;99.90;;;;;;4174475;28;20242;-75
2023/05/18 07:28:32;;;;;;;3.97;1.43;;;9.40;99.90;;;;;;4176932;28;20309;-75
2023/05/18 07:30:34;;;;;;;3.33;1.40;;;9.50;99.90;;;;;;4170289;28;20215;-75
2023/05/18 07:32:36;;;;;;;6.30;1.60;;;9.60;99.90;;;;;;4167318;28;20207;-76
2023/05/18 07:34:38;;;;;;;3.73;1.60;;;9.60;99.90;;;;;;4171492;28;20345;-78
2023/05/18 07:36:40;;;;;;;4.77;1.50;;;9.70;99.90;;;;;;4168848;28;20230;-76
2023/05/18 07:38:43;;;;;;;3.80;1.50;;;9.80;99.90;;;;;;4168905;28;20288;-75
2023/05/18 07:40:45;;;;;;;2.57;1.00;;;9.80;99.90;;;;;;4173341;28;20752;-76
2023/05/18 07:42:46;;;;;;;4.17;1.10;;;9.90;99.90;;;;;;4165698;28;20212;-76
2023/05/18 07:44:51;;;;;;;4.43;1.43;;;9.90;99.90;;;;;;4170475;28;20211;-77
2023/05/18 07:46:53;;;;;;;6.53;1.80;;;10.00;99.90;;;;;;4173539;28;20272;-77
2023/05/18 07:48:54;;;;;;;6.20;1.93;;;10.00;99.90;;;;;;4176298;28;20207;-76
2023/05/18 07:50:57;;;;;;;7.90;2.00;;;10.10;99.90;;;;;;4168926;28;20208;-75
2023/05/18 07:52:58;;;;;;;3.90;1.50;;;10.20;99.90;;;;;;4171942;28;20221;-76
2023/05/18 07:55:01;;;;;;;6.27;1.53;;;10.30;99.90;;;;;;4169904;28;20255;-76
2023/05/18 07:57:03;;;;;;;4.00;1.30;;;10.30;99.90;;;;;;4169958;28;20203;-76
2023/05/18 07:59:05;;;;;;;6.40;1.40;;;10.40;99.90;;;;;;4176448;28;20232;-76
2023/05/18 08:01:08;;;;;;;5.17;1.80;;;10.50;99.90;;;;;;4166166;28;20565;-76
2023/05/18 08:03:10;;;;;;;5.90;1.50;;;10.50;99.90;;;;;;4170858;28;20205;-79
2023/05/18 08:05:12;;;;;;;4.03;1.20;;;10.60;99.90;;;;;;4167309;28;20808;-78
2023/05/18 08:07:14;;;;;;;6.07;1.20;;;10.70;99.90;;;;;;4168746;28;20232;-77
2023/05/18 08:09:16;;;;;;;6.13;1.73;;;10.80;99.90;;;;;;4170003;28;20216;-77
2023/05/18 08:11:18;;;;;;;3.27;1.20;;;10.90;99.90;;;;;;4173862;28;20221;-79
2023/05/18 08:13:20;;;;;;;5.00;1.20;;;10.90;99.90;;;;;;4170206;28;20210;-82
2023/05/18 08:15:22;;;;;;;4.03;1.07;;;11.00;99.90;;;;;;4173780;28;20213;-79
2023/05/18 08:17:26;;;;;;;4.50;1.00;;;11.10;99.90;;;;;;4173383;28;20229;-79
2023/05/18 08:19:27;;;;;;;4.03;1.17;;;11.20;99.90;;;;;;4173921;28;20226;-75
2023/05/18 08:21:29;;;;;;;8.03;1.37;;;11.30;99.90;;;;;;4172312;28;20231;-76
2023/05/18 08:23:31;;;;;;;4.00;1.23;;;11.50;99.90;;;;;;4174400;28;20279;-76
2023/05/18 08:25:33;;;;;;;3.70;1.10;;;11.60;99.90;;;;;;4170765;28;20210;-75
2023/05/18 08:27:35;;;;;;;3.80;1.27;;;11.80;99.90;;;;;;4170152;28;20249;-75
2023/05/18 08:29:37;;;;;;;2.23;1.03;;;11.90;99.90;;;;;;4175211;28;20615;-77
2023/05/18 08:31:41;;;;;;;2.67;1.07;;;12.10;99.90;;;;;;4174695;28;20772;-76
2023/05/18 08:33:46;;;;;;;6.40;1.30;;;12.20;99.90;;;;;;4171384;28;20214;-77
2023/05/18 08:35:48;;;;;;;3.97;1.20;;;12.40;99.90;;;;;;4169535;28;20659;-76
2023/05/18 08:37:50;;;;;;;2.70;0.90;;;12.50;99.90;;;;;;4167721;28;20231;-79
2023/05/18 08:39:52;;;;;;;4.30;1.40;;;12.70;99.90;;;;;;4174735;28;20614;-80
2023/05/18 08:42:00;;;;;;;3.97;1.20;;;12.80;99.90;;;;;;4176651;28;20202;-77
2023/05/18 08:44:06;;;;;;;4.77;1.10;;;13.00;99.90;;;;;;4169966;28;20206;-76
2023/05/18 08:46:13;;;;;;;5.60;1.33;;;13.20;99.90;;;;;;4167908;28;20210;-77
2023/05/18 08:48:16;;;;;;;7.33;1.40;;;13.40;99.90;;;;;;4177082;28;20246;-77
2023/05/18 08:50:21;;;;;;;3.73;1.50;;;13.50;99.90;;;;;;4177720;28;20214;-80
2023/05/18 08:52:26;;;;;;;4.93;1.20;;;13.60;99.90;;;;;;4172932;28;20206;-81
2023/05/18 08:54:31;;;;;;;3.73;1.20;;;13.80;99.90;;;;;;4180784;28;20213;-78
2023/05/18 08:56:33;;;;;;;3.80;1.30;;;14.00;99.90;;;;;;4170908;28;20222;-78
2023/05/18 08:58:43;;;;;;;2.87;1.10;;;14.20;99.90;;;;;;4168421;28;20237;-79
2023/05/18 09:00:45;;;;;;;3.50;1.00;;;14.40;99.90;;;;;;4175696;28;20719;-78
2023/05/18 09:02:48;;;;;;;4.03;1.00;;;14.60;99.90;;;;;;4170741;28;20212;-79
2023/05/18 09:04:50;;;;;;;5.17;1.10;;;14.80;99.30;;;;;;4172356;28;20685;-79
2023/05/18 09:06:55;;;;;;;2.40;1.33;;;14.90;99.90;;;;;;4172289;28;20623;-78
2023/05/18 09:08:57;;;;;;;4.53;2.00;;;15.10;99.90;;;;;;4172129;28;20209;-79
2023/05/18 09:11:02;;;;;;;5.57;1.60;;;15.20;95.50;;;;;;4170866;28;20260;-78
2023/05/18 09:13:06;;;;;;;2.80;1.27;;;15.30;97.10;;;;;;4165695;28;20203;-78
2023/05/18 09:15:10;;;;;;;5.40;1.40;;;15.30;93.70;;;;;;4167861;28;20218;-78
2023/05/18 09:17:12;;;;;;;4.13;1.63;;;15.40;94.20;;;;;;4174209;28;20669;-78
2023/05/18 09:19:15;;;;;;;4.23;1.20;;;15.50;92.00;;;;;;4173229;28;20209;-78
2023/05/18 09:21:17;;;;;;;3.13;1.27;;;15.50;95.00;;;;;;4173212;28;20222;-80
2023/05/18 09:23:20;;;;;;;3.77;1.30;;;15.60;93.40;;;;;;4166565;28;20273;-78
2023/05/18 09:25:24;;;;;;;4.77;1.50;;;15.70;89.70;;;;;;4165215;28;20210;-78
2023/05/18 09:27:28;;;;;;;3.73;1.43;;;15.80;86.00;;;;;;4172298;28;20281;-80
2023/05/18 09:29:30;;;;;;;4.60;1.20;;;15.90;82.80;;;;;;4175297;28;20218;-80
2023/05/18 09:31:32;;;;;;;3.33;1.33;;;16.00;72.60;;;;;;4175576;28;20210;-79
2023/05/18 09:33:35;;;;;;;3.97;1.30;;;16.00;69.40;;;;;;4177982;28;20207;-79
2023/05/18 09:35:37;;;;;;;3.73;1.30;;;16.10;67.60;;;;;;4173543;28;20241;-79
2023/05/18 09:37:42;;;;;;;3.20;1.27;;;16.10;63.10;;;;;;4180057;28;20619;-80
2023/05/18 09:39:57;;;;;;;3.27;1.10;;;16.10;64.80;;;;;;4172494;28;20194;-78
2023/05/18 09:42:02;;;;;;;3.53;1.10;;;16.10;65.60;;;;;;4173659;28;20643;-77
2023/05/18 09:44:08;;;;;;;4.63;1.30;;;16.20;66.80;;;;;;4173096;28;20236;-80
2023/05/18 09:46:11;;;;;;;5.33;1.50;;;16.20;62.60;;;;;;4174464;28;20318;-80
2023/05/18 09:48:14;;;;;;;4.50;1.30;;;16.30;66.40;;;;;;4166179;28;20228;-79
2023/05/18 09:50:19;;;;;;;5.83;1.33;;;16.50;63.50;;;;;;4184764;28;20230;-80
2023/05/18 09:52:21;;;;;;;3.63;1.03;;;16.60;66.70;;;;;;4177368;28;20207;-79
2023/05/18 09:54:23;;;;;;;3.50;1.00;;;16.70;59.20;;;;;;4169512;28;20218;-81
2023/05/18 09:56:27;;;;;;;7.17;2.73;;;16.80;59.40;;;;;;4170887;28;20211;-77
2023/05/18 09:58:35;;;;;;;5.47;2.30;;;16.90;56.90;;;;;;4167841;28;20219;-76
2023/05/18 10:00:41;;;;;;;5.07;1.50;;;16.90;57.50;;;;;;4171589;28;20212;-80
2023/05/18 10:02:47;;;;;;;5.13;1.93;;;17.00;58.50;;;;;;4169232;28;20214;-79
2023/05/18 10:04:50;;;;;;;3.13;1.23;;;16.90;57.00;;;;;;4173253;28;20240;-77
2023/05/18 10:06:52;;;;;;;7.20;1.50;;;16.90;57.50;;;;;;4165846;28;20261;-77
2023/05/18 10:08:56;;;;;;;3.10;1.17;;;16.90;54.70;;;;;;4169108;28;20235;-80
2023/05/18 10:10:58;;;;;;;5.03;1.33;;;16.80;56.00;;;;;;4165813;28;20196;-80
2023/05/18 10:13:01;;;;;;;5.30;1.20;;;16.70;56.30;;;;;;4168065;28;20265;-78
2023/05/18 10:15:04;;;;;;;4.83;1.07;;;16.60;56.60;;;;;;4167269;28;20844;-77
2023/05/18 10:17:06;;;;;;;3.57;1.10;;;16.60;55.00;;;;;;4165448;28;20711;-76
2023/05/18 10:19:10;;;;;;;4.00;1.03;;;16.50;55.20;;;;;;4171861;28;20290;-80
2023/05/18 10:21:14;;;;;;;2.73;1.03;;;16.50;58.80;;;;;;4173177;28;20266;-80
2023/05/18 10:23:18;;;;;;;5.30;1.10;;;16.50;59.40;;;;;;4170103;28;20207;-80
2023/05/18 10:25:21;;;;;;;2.90;1.20;;;16.60;58.50;;;;;;4170993;28;20208;-79
2023/05/18 10:27:27;;;;;;;3.53;0.93;;;16.60;56.20;;;;;;4170403;28;20236;-80
2023/05/18 10:29:32;;;;;;;2.90;1.13;;;16.60;53.20;;;;;;4170697;28;20267;-78
2023/05/18 10:31:37;;;;;;;4.37;1.20;;;16.70;53.20;;;;;;4167957;28;20618;-78
2023/05/18 10:33:39;;;;;;;3.50;1.13;;;16.80;54.70;;;;;;4172274;28;20207;-80
2023/05/18 10:35:41;;;;;;;3.40;0.90;;;16.90;54.30;;;;;;4172968;28;20216;-80
2023/05/18 10:37:47;;;;;;;2.50;0.90;;;16.90;53.00;;;;;;4170581;28;20826;-81
2023/05/18 10:39:51;;;;;;;4.07;1.20;;;16.90;51.90;;;;;;4174513;28;20310;-80
2023/05/18 10:41:55;;;;;;;2.77;1.00;;;17.00;52.30;;;;;;4175259;28;20274;-80
2023/05/18 10:44:02;;;;;;;6.23;1.27;;;17.00;51.90;;;;;;4174705;28;20217;-79
2023/05/18 10:46:07;;;;;;;3.27;1.10;;;17.00;50.40;;;;;;4176680;28;20202;-80